METAR Data
IDs: Format: Raw Decoded Include TAF

Data at: 1454 UTC 18 Aug 2019

PAVL 181353Z AUTO 06007KT 10SM CLR 07/04 A3054 RMK AO2 SLP341 T00670039 TSNO
PAVL 181253Z AUTO 06007KT 10SM CLR 07/04 A3054 RMK AO2 SLP343 T00670044 TSNO
PAVL 181153Z AUTO 07008KT 9SM CLR 06/06 A3055 RMK AO2 SLP345 T00610056 10128 20061 58010 TSNO
PAVL 181053Z AUTO 06006KT 9SM CLR 07/07 A3056 RMK AO2 SLP349 T00720072 TSNO
PAVL 181005Z AUTO 07006KT 8SM SCT001 07/07 A3057 RMK AO2 T00720072 TSNO
PAVL 180953Z AUTO 07005KT 4SM BR BKN001 07/07 A3057 RMK AO2 SLP352 T00720072 TSNO
PAVL 180935Z AUTO 06004KT 1/2SM FG VV001 07/07 A3058 RMK AO2 T00720072 TSNO
PAVL 180928Z AUTO 07004KT 1SM BR VV001 07/07 A3057 RMK AO2 T00720072 TSNO
PAVL 180925Z AUTO 07004KT 2SM BR SCT001 08/08 A3057 RMK AO2 T00780078 TSNO
PAVL 180853Z AUTO 04003KT 9SM CLR 10/09 A3058 RMK AO2 SLP355 T01000094 401390044 56006 TSNO
PAVL 180653Z AUTO 31008KT 6SM BR CLR 12/11 A3059 RMK AO2 SLP358 T01220111 TSNO
PAVL 180553Z AUTO 31008KT 7SM CLR 13/11 A3060 RMK AO2 SLP361 T01280111 10139 20128 56010 TSNO
PAVL 180453Z AUTO 29010KT 7SM CLR 13/11 A3061 RMK AO2 SLP365 T01280106 TSNO
PAVL 180353Z AUTO 29009KT 8SM CLR 13/10 A3062 RMK AO2 SLP367 T01330100 TSNO
PAVL 180253Z AUTO 30009KT 8SM CLR 14/09 A3063 RMK AO2 SLP372 T01390094 58010 TSNO
PAVL 180153Z AUTO 30011KT 8SM CLR 14/09 A3064 RMK AO2 SLP377 T01390094 TSNO
PAVL 180053Z AUTO 30012KT 8SM CLR 14/09 A3065 RMK AO2 SLP378 T01390089 TSNO
PAVL 172253Z AUTO 31007KT 8SM CLR 13/07 A3067 RMK AO2 SLP386 T01330072 TSNO
PAVL 172153Z AUTO 30007KT 7SM CLR 12/07 A3068 RMK AO2 SLP387 T01170067 TSNO
PAVL 172053Z AUTO 32005KT 8SM CLR 12/06 A3069 RMK AO2 SLP393 T01220056 52002 TSNO
PAVL 171953Z AUTO 05005KT 8SM CLR 11/04 A3069 RMK AO2 SLP392 T01060039 TSNO
PAVL 171853Z AUTO 06008KT 8SM CLR 09/04 A3069 RMK AO2 SLP392 T00890039 TSNO
PAVL 171753Z AUTO 04007KT 8SM CLR 08/04 A3069 RMK AO2 SLP391 T00780039 10078 20044 53005 TSNO
PAVL 171653Z AUTO 03009KT 7SM CLR 06/03 A3068 RMK AO2 SLP390 T00610033 TSNO
PAVL 171553Z AUTO 04009KT 7SM CLR 05/04 A3067 RMK AO2 SLP386 T00500039 TSNO
PAVL 171453Z AUTO 06009KT 7SM CLR 05/03 A3067 RMK AO2 SLP386 T00500033 51007 TSNO
PAVL 171353Z AUTO 04010KT 8SM CLR 06/04 A3067 RMK AO2 SLP384 T00560039 TSNO
PAVL 171253Z AUTO 06010KT 9SM CLR 06/04 A3066 RMK AO2 SLP382 T00610039 TSNO
PAVL 171153Z AUTO 03014KT 9SM CLR 06/04 A3065 RMK AO2 SLP378 T00610044 10117 20061 51015 TSNO
PAVL 171053Z AUTO 03018KT 9SM CLR 07/04 A3063 RMK AO2 SLP373 T00720044 TSNO
PAVL 170953Z AUTO 02019KT 9SM CLR 08/05 A3062 RMK AO2 SLP370 T00780050 TSNO
PAVL 170853Z AUTO 01021KT 10SM CLR 08/05 A3060 RMK AO2 PK WND 03027/0816 SLP363 T00830050 401390072 51019 TSNO
PAVL 170753Z AUTO 03016G25KT 9SM CLR 09/04 A3059 RMK AO2 SLP359 T00890044 TSNO
PAVL 170653Z AUTO 01020KT 8SM CLR 10/05 A3057 RMK AO2 SLP350 T01000050 TSNO
PAVL 170553Z AUTO 01017KT 8SM CLR 12/07 A3055 RMK AO2 PK WND 01026/0525 SLP344 T01170067 10139 20117 53019 TSNO
PAVL 170453Z AUTO 36020KT 9SM CLR 13/07 A3053 RMK AO2 PK WND 01028/0405 SLP337 T01280067 TSNO
PAVL 170353Z AUTO 01020KT 9SM CLR 13/06 A3051 RMK AO2 PK WND 02027/0324 SLP330 T01330061 TSNO